Elliot Chaparral Reserve, California Weather observations

Data are for 10 minute period ending at time listed.
 Day   Time   Solar   Ave.   Ave.  Ave.  Vector  Max.   Baro.   Total    
  of    of     Rad.   Air    Rel.  Wind   Wind   Wind  Press.  Precip.   
Year   Day            Temp.  Hum.  Speed  Dir.   Gust                    
2014   (PST)  Kw/m2    F      %     mph   deg.    mph    mb.     in.     
-------------------------------------------------------------------------
 361   17:30   0.00   51.7    41    6.9   348     8.8   995.7    0.00 
 361   17:40   0.00   51.4    42    7.0   343     9.4   995.9    0.00 
 361   17:50   0.00   51.2    40    7.1   353    10.2   995.9    0.00 
 361   18:00   0.00   51.3    38    8.3     0    10.6   995.8    0.00 
 361   18:10   0.00   51.3    37    7.8     5    10.5   996.1    0.00 
 361   18:20   0.00   51.3    38    6.2    24     9.6   995.9    0.00 
 361   18:30   0.00   50.8    38    5.9    34     8.3   995.8    0.00 
 361   18:40   0.00   51.1    37    8.4    24     9.9   995.8    0.00 
 361   18:50   0.00   51.0    36    7.7    18     9.6   996.1    0.00 
 361   19:00   0.00   50.7    37    6.6    22     8.8   996.1    0.00 
 361   19:10   0.00   50.7    36    7.1    21     8.4   996.1    0.00 
 361   19:20   0.00   50.6    36    8.1    28     9.9   996.2    0.00 
 361   19:30   0.00   50.3    34    8.7    26     9.7   996.2    0.00 
 361   19:40   0.00   50.4    32    8.4    17     9.7   996.4    0.00 
 361   19:50   0.00   49.0    34    6.2     8     7.4   996.6    0.00 
 361   20:00   0.00   50.3    25    7.0    26     8.8   996.6    0.00 
 361   20:10   0.00   50.1    25    6.4    22     7.4   996.6    0.00 
 361   20:20   0.00   50.3    24    4.9    28     6.3   996.6    0.00 
 361   20:30   0.00   50.1    25    3.5    38     6.1   996.5    0.00 
 361   20:40   0.00   49.9    24    2.5    76     4.0   996.6    0.00 
 361   20:50   0.00   49.5    24    4.9    75     6.8   996.4    0.00 
 361   21:00   0.00   48.1    25    7.1    86     9.9   996.3    0.00 
 361   21:10   0.00   45.9    30   10.0    96    12.0   996.1    0.00 
 361   21:20   0.00   45.9    28    9.7    97    13.6   996.1    0.00 
 361   21:30   0.00   45.6    29    8.9    95    12.9   996.0    0.00 
 361   21:40   0.00   46.2    28    6.9    70     9.1   995.9    0.00 
 361   21:50   0.00   47.3    26    7.2    76     9.3   995.9    0.00 
 361   22:00   0.00   46.4    28   10.0    88    13.7   995.7    0.00 
 361   22:10   0.00   45.6    29   10.5    91    12.4   995.7    0.00 
 361   22:20   0.00   45.0    29    9.5    90    11.7   995.7    0.00 
 361   22:30   0.00   44.9    29    8.3    92    10.4   995.8    0.00 
 361   22:40   0.00   44.5    30    8.7    90    11.4   995.7    0.00 
 361   22:50   0.00   44.1    31    9.4    91    11.4   995.6    0.00 
 361   23:00   0.00   44.1    31    8.3    81    10.7   995.5    0.00 
 361   23:10   0.00   44.6    31    7.9    80    10.6   995.4    0.00 
 361   23:20   0.00   45.4    29    7.3    80    10.6   995.3    0.00 
 361   23:30   0.00   45.7    28    6.6    71     9.6   995.3    0.00 
 361   23:40   0.00   46.3    27    6.4    74     9.5   995.3    0.00 
 361   23:50   0.00   47.1    26    6.8    85     9.6   995.3    0.00 
 362    0:00   0.00   46.6    27    6.9    82     9.6   995.1    0.00 
 362    0:10   0.00   46.9    27    6.5    80     9.1   995.0    0.00 
 362    0:20   0.00   46.2    28    6.4    87     9.1   994.8    0.00 
 362    0:30   0.00   44.7    31    5.4    74     8.3   994.8    0.00 
 362    0:40   0.00   44.8    31    5.6    72     8.3   994.9    0.00 
 362    0:50   0.00   44.7    31    5.8    75     8.1   994.9    0.00 
 362    1:00   0.00   45.1    30    6.7    84     8.6   994.9    0.00 
 362    1:10   0.00   44.9    30    5.1    76     7.1   995.1    0.00 
 362    1:20   0.00   45.1    30    5.1    84     7.6   995.1    0.00 
 362    1:30   0.00   45.2    30    5.1    88     7.4   995.1    0.00 
 362    1:40   0.00   45.6    30    4.9    78     7.4   995.1    0.00 
 362    1:50   0.00   45.0    30    7.3    85     8.6   995.0    0.00 
 362    2:00   0.00   45.5    29    6.9    88     9.3   994.9    0.00 
 362    2:10   0.00   46.1    28    6.9    94     8.3   994.8    0.00 
 362    2:20   0.00   46.0    28    6.7    85     9.2   994.7    0.00 
 362    2:30   0.00   44.9    29    6.3    74     9.1   994.7    0.00 
 362    2:40   0.00   44.6    29    6.1    67     7.6   994.6    0.00 
 362    2:50   0.00   45.1    28    7.1    74     9.5   994.6    0.00 
 362    3:00   0.00   45.9    26    7.0    77     8.9   994.4    0.00 
 362    3:10   0.00   45.8    26    6.5    74     8.3   994.3    0.00 
 362    3:20   0.00   45.1    27    6.3    77     8.3   994.2    0.00 
 362    3:30   0.00   45.0    27    7.3    85     9.5   994.1    0.00 
 362    3:40   0.00   44.7    28    7.1    79     9.1   994.0    0.00 
 362    3:50   0.00   45.2    27    6.5    74     8.6   993.9    0.00 
 362    4:00   0.00   45.1    27    6.1    77     8.5   993.8    0.00 
 362    4:10   0.00   45.2    27    6.9    79     9.4   993.7    0.00 
 362    4:20   0.00   45.1    27    7.1    82    10.1   993.5    0.00 
 362    4:30   0.00   45.1    27    7.2    87    10.0   993.4    0.00 
 362    4:40   0.00   44.4    28    6.7    77     9.4   993.4    0.00 
 362    4:50   0.00   44.7    28    6.0    82     9.4   993.5    0.00 
 362    5:00   0.00   45.5    27    5.9    84     8.0   993.5    0.00 
 362    5:10   0.00   44.3    29    6.7    77     9.3   993.5    0.00 
 362    5:20   0.00   44.1    29    6.2    78     9.4   993.4    0.00 
 362    5:30   0.00   44.6    28    6.6    81     8.8   993.4    0.00 
 362    5:40   0.00   44.9    28    6.4    87     9.1   993.4    0.00 
 362    5:50   0.00   44.9    27    7.9    89    10.7   993.4    0.00 
 362    6:00   0.00   44.5    28    6.7    80    10.2   993.4    0.00 
 362    6:10   0.00   44.3    28    6.8    77     9.3   993.4    0.00 
 362    6:20   0.00   44.4    27    7.8    77    10.4   993.4    0.00 
 362    6:30   0.00   44.5    27    8.2    80    11.0   993.4    0.00 
 362    6:40   0.00   44.8    27    8.7    84    10.7   993.4    0.00 
 362    6:50   0.00   45.3    26    8.8    89    10.2   993.4    0.00 
 362    7:00   0.01   45.8    25    8.2    94     9.6   993.6    0.00 
 362    7:10   0.03   46.1    25    8.3    91     9.9   993.7    0.00 
 362    7:20   0.06   46.6    25    7.8    93    10.0   993.9    0.00 
 362    7:30   0.08   47.1    25    6.6    87     8.8   994.0    0.00 
 362    7:40   0.11   47.6    25    6.9    84     9.3   994.1    0.00 
 362    7:50   0.12   47.9    25    6.7    80     8.7   994.3    0.00 
 362    8:00   0.11   48.3    25    6.7    80     8.8   994.4    0.00 
 362    8:10   0.12   48.7    23    7.3    86    10.0   994.4    0.00 
 362    8:20   0.19   49.8    23    6.1    80     9.0   994.5    0.00 
 362    8:30   0.22   51.4    22    4.2    82     7.7   994.7    0.00 
 362    8:40   0.31   53.4    24    1.2    56     3.4   994.9    0.00 
 362    8:50   0.27   54.5    23    2.3   122     3.8   995.0    0.00 
 362    9:00   0.16   52.9    27    2.2   137     4.2   995.2    0.00 
 362    9:10   0.24   52.3    28    2.4   120     3.7   995.3    0.00 
 362    9:20   0.23   52.9    26    2.6   111     3.9   995.2    0.00 
 362    9:30   0.20   53.1    25    2.9   119     4.2   995.2    0.00 
 362    9:40   0.18   53.2    26    3.3   115     4.3   995.2    0.00 
 362    9:50   0.22   53.1    28    3.3   123     4.3   995.2    0.00 
 362   10:00   0.17   52.9    27    3.9   121     5.0   995.2    0.00 
 362   10:10   0.17   52.8    26    3.1    92     3.9   995.1    0.00 
 362   10:20   0.31   53.9    24    2.6    73     4.5   995.1    0.00 
 362   10:30   0.35   55.5    24    2.3     5     4.0   995.1    0.00 
 362   10:40   0.36   56.5    24    2.0     2     3.9   995.0    0.00 
 362   10:50   0.41   57.2    27    4.0   320     8.8   995.0    0.00 
 362   11:00   0.36   56.6    35    8.0   310    11.6   994.9    0.00 
 362   11:10   0.70   57.2    39    8.9   321    13.2   994.8    0.00 
 362   11:20   0.41   56.6    37    8.4   325    12.5   994.7    0.00 
 362   11:30   0.52   57.0    36    8.0   319    11.9   994.5    0.00 
 362   11:40   0.56   57.1    36    8.1   305    11.5   994.3    0.00 
 362   11:50   0.57   57.2    33    6.8   310    10.5   994.2    0.00 
 362   12:00   0.57   58.1    33    6.1   312    10.2   994.0    0.00 
 362   12:10   0.54   58.2    34    7.0   331    10.3   994.0    0.00 
 362   12:20   0.55   58.2    33    7.5   306    11.2   993.9    0.00 
 362   12:30   0.54   58.7    34    6.4   321    12.4   993.7    0.00 
 362   12:40   0.52   58.6    36    8.3   320    13.0   993.6    0.00 
 362   12:50   0.55   58.6    33   10.1   298    14.7   993.4    0.00 
 362   13:00   0.54   59.3    30    7.0   342    10.7   993.3    0.00 
 362   13:10   0.51   59.3    28    7.3   314    10.7   993.2    0.00 
 362   13:20   0.49   59.8    28    6.4   312    11.0   993.0    0.00 
 362   13:30   0.49   59.9    29    6.2   303    12.2   992.9    0.00 
 362   13:40   0.47   60.0    31    4.7   303    10.1   992.8    0.00 
 362   13:50   0.45   60.1    30    5.8   322    11.2   992.6    0.00 
 362   14:00   0.41   59.8    29    5.7   317    10.4   992.5    0.00 
 362   14:10   0.42   60.2    28    8.3   292    11.9   992.4    0.00 
 362   14:20   0.40   59.9    28    7.3   288    11.5   992.3    0.00 
 362   14:30   0.37   59.7    31    8.8   277    13.3   992.2    0.00 
 362   14:40   0.34   59.3    33   10.1   282    14.8   992.2    0.00 
 362   14:50   0.32   58.5    37   12.1   282    15.8   992.2    0.00 
 362   15:00   0.29   58.4    37   12.1   292    15.7   992.3    0.00 
 362   15:10   0.27   57.6    37   11.4   305    15.5   992.3    0.00 
 362   15:20   0.21   58.0    35    9.3   304    13.0   992.3    0.00 
 362   15:30   0.22   57.6    34   10.0   300    13.7   992.2    0.00 
 362   15:40   0.12   56.8    36    9.1   306    12.9   992.3    0.00 
 362   15:50   0.05   55.7    40    6.9   301    11.5   992.3    0.00 
 362   16:00   0.08   55.1    43    7.3   301    10.6   992.3    0.00 
 362   16:10   0.08   55.3    43    8.1   306    10.7   992.2    0.00 
 362   16:20   0.07   55.1    44    7.2   300    10.7   992.1    0.00 
 362   16:30   0.04   54.6    49    8.1   290    10.4   992.1    0.00 
 362   16:40   0.02   53.9    51    8.1   290    10.2   992.2    0.00 
 362   16:50   0.01   52.7    54    7.4   295     9.5   992.2    0.00 
 362   17:00   0.00   51.9    56    6.3   302     7.8   992.2    0.00 
 362   17:10   0.00   51.5    58    5.6   300     7.2   992.1    0.00 
 362   17:20   0.00   51.3    59    4.7   306     6.6   992.2    0.00 

Return to Elliot Chaparral Reserve graphs page.


Western Regional Climate Center,wrcc@dri.edu